Terminal Aerodrome Forecast
Issued by NWS Nashville, TN

Home | Current Version | Previous Version | Text Only | Print | Product List | Glossary On
Versions: 1 2 3 4 5 6 7 8 9 10 11 12 13 14 15
000
FTUS44 KOHX 181700
TAFBNA
TAF
KBNA 181722Z 1818/1918 15005KT P6SM BKN060
     FM190000 04007KT P6SM SCT050 SCT250
     FM190600 36005KT P6SM FEW250
     FM191400 03013KT P6SM SKC=

USA.gov is the U.S. government's official web portal to all federal, state and local government web resources and services.